sensor_id;sensor_type;location;lat;lon;timestamp;P1;durP1;ratioP1;P2;durP2;ratioP2
21426;SDS011;10874;49.452;11.050;2023-06-19T00:00:52;10.53;;;9.60;;
21426;SDS011;10874;49.452;11.050;2023-06-19T00:03:19;11.07;;;9.63;;
21426;SDS011;10874;49.452;11.050;2023-06-19T00:05:45;11.10;;;10.00;;
21426;SDS011;10874;49.452;11.050;2023-06-19T00:08:12;10.87;;;9.97;;
21426;SDS011;10874;49.452;11.050;2023-06-19T00:10:39;10.27;;;9.27;;
21426;SDS011;10874;49.452;11.050;2023-06-19T00:13:06;10.63;;;9.60;;
21426;SDS011;10874;49.452;11.050;2023-06-19T00:15:33;10.23;;;9.23;;
21426;SDS011;10874;49.452;11.050;2023-06-19T00:17:59;10.43;;;9.53;;
21426;SDS011;10874;49.452;11.050;2023-06-19T00:20:26;9.83;;;8.93;;
21426;SDS011;10874;49.452;11.050;2023-06-19T00:22:53;10.03;;;9.13;;
21426;SDS011;10874;49.452;11.050;2023-06-19T00:25:20;10.90;;;9.90;;
21426;SDS011;10874;49.452;11.050;2023-06-19T00:27:47;9.77;;;8.87;;
21426;SDS011;10874;49.452;11.050;2023-06-19T00:30:14;10.20;;;9.20;;
21426;SDS011;10874;49.452;11.050;2023-06-19T00:32:41;10.07;;;9.10;;
21426;SDS011;10874;49.452;11.050;2023-06-19T00:35:16;10.40;;;9.47;;
21426;SDS011;10874;49.452;11.050;2023-06-19T00:37:46;10.20;;;9.30;;
21426;SDS011;10874;49.452;11.050;2023-06-19T00:40:26;9.83;;;8.93;;
21426;SDS011;10874;49.452;11.050;2023-06-19T00:42:54;10.23;;;9.33;;
21426;SDS011;10874;49.452;11.050;2023-06-19T00:45:20;10.17;;;9.23;;
21426;SDS011;10874;49.452;11.050;2023-06-19T00:47:47;10.40;;;9.40;;
21426;SDS011;10874;49.452;11.050;2023-06-19T00:50:14;10.47;;;9.47;;
21426;SDS011;10874;49.452;11.050;2023-06-19T00:52:41;9.87;;;8.97;;
21426;SDS011;10874;49.452;11.050;2023-06-19T00:55:09;10.13;;;9.10;;
21426;SDS011;10874;49.452;11.050;2023-06-19T00:57:36;10.23;;;9.23;;
21426;SDS011;10874;49.452;11.050;2023-06-19T01:00:06;9.90;;;9.00;;
21426;SDS011;10874;49.452;11.050;2023-06-19T01:02:34;9.37;;;8.40;;
21426;SDS011;10874;49.452;11.050;2023-06-19T01:05:01;9.93;;;9.03;;
21426;SDS011;10874;49.452;11.050;2023-06-19T01:09:56;9.37;;;8.47;;
21426;SDS011;10874;49.452;11.050;2023-06-19T01:12:36;9.63;;;8.83;;
21426;SDS011;10874;49.452;11.050;2023-06-19T01:15:04;9.30;;;8.50;;
21426;SDS011;10874;49.452;11.050;2023-06-19T01:17:32;9.20;;;8.43;;
21426;SDS011;10874;49.452;11.050;2023-06-19T01:19:59;8.87;;;8.07;;
21426;SDS011;10874;49.452;11.050;2023-06-19T01:22:29;8.90;;;8.20;;
21426;SDS011;10874;49.452;11.050;2023-06-19T01:24:58;9.00;;;8.20;;
21426;SDS011;10874;49.452;11.050;2023-06-19T01:27:25;8.57;;;7.77;;
21426;SDS011;10874;49.452;11.050;2023-06-19T01:29:52;8.73;;;7.93;;
21426;SDS011;10874;49.452;11.050;2023-06-19T01:32:23;8.57;;;7.77;;
21426;SDS011;10874;49.452;11.050;2023-06-19T01:34:52;8.50;;;7.80;;
21426;SDS011;10874;49.452;11.050;2023-06-19T01:37:21;7.87;;;7.20;;
21426;SDS011;10874;49.452;11.050;2023-06-19T01:39:51;9.17;;;8.27;;
21426;SDS011;10874;49.452;11.050;2023-06-19T01:42:18;8.97;;;8.07;;
21426;SDS011;10874;49.452;11.050;2023-06-19T01:44:45;9.17;;;8.37;;
21426;SDS011;10874;49.452;11.050;2023-06-19T01:47:13;10.10;;;9.13;;
21426;SDS011;10874;49.452;11.050;2023-06-19T01:49:42;11.13;;;10.10;;
21426;SDS011;10874;49.452;11.050;2023-06-19T01:52:08;10.80;;;9.77;;
21426;SDS011;10874;49.452;11.050;2023-06-19T01:54:35;10.80;;;9.90;;
21426;SDS011;10874;49.452;11.050;2023-06-19T01:57:02;10.53;;;9.53;;
21426;SDS011;10874;49.452;11.050;2023-06-19T01:59:29;10.43;;;9.53;;
21426;SDS011;10874;49.452;11.050;2023-06-19T02:01:56;10.27;;;9.07;;
21426;SDS011;10874;49.452;11.050;2023-06-19T02:04:23;10.57;;;9.67;;
21426;SDS011;10874;49.452;11.050;2023-06-19T02:06:50;10.87;;;9.83;;
21426;SDS011;10874;49.452;11.050;2023-06-19T02:09:17;10.07;;;9.27;;
21426;SDS011;10874;49.452;11.050;2023-06-19T02:11:44;10.10;;;9.17;;
21426;SDS011;10874;49.452;11.050;2023-06-19T02:14:10;10.20;;;9.10;;
21426;SDS011;10874;49.452;11.050;2023-06-19T02:16:37;9.90;;;9.00;;
21426;SDS011;10874;49.452;11.050;2023-06-19T02:19:04;11.83;;;9.10;;
21426;SDS011;10874;49.452;11.050;2023-06-19T02:21:31;9.40;;;8.60;;
21426;SDS011;10874;49.452;11.050;2023-06-19T02:23:58;9.77;;;8.90;;
21426;SDS011;10874;49.452;11.050;2023-06-19T02:26:25;9.47;;;8.67;;
21426;SDS011;10874;49.452;11.050;2023-06-19T02:28:55;9.87;;;8.97;;
21426;SDS011;10874;49.452;11.050;2023-06-19T02:31:22;8.93;;;8.13;;
21426;SDS011;10874;49.452;11.050;2023-06-19T02:33:49;9.60;;;8.53;;
21426;SDS011;10874;49.452;11.050;2023-06-19T02:36:18;8.63;;;7.83;;
21426;SDS011;10874;49.452;11.050;2023-06-19T02:38:46;9.77;;;8.73;;
21426;SDS011;10874;49.452;11.050;2023-06-19T02:41:14;9.00;;;8.10;;
21426;SDS011;10874;49.452;11.050;2023-06-19T02:43:42;8.70;;;8.00;;
21426;SDS011;10874;49.452;11.050;2023-06-19T02:46:09;9.07;;;8.23;;
21426;SDS011;10874;49.452;11.050;2023-06-19T02:48:40;9.47;;;7.80;;
21426;SDS011;10874;49.452;11.050;2023-06-19T02:51:07;8.83;;;8.03;;
21426;SDS011;10874;49.452;11.050;2023-06-19T02:53:33;8.77;;;7.97;;
21426;SDS011;10874;49.452;11.050;2023-06-19T02:56:00;9.07;;;8.17;;
21426;SDS011;10874;49.452;11.050;2023-06-19T02:58:27;9.10;;;8.03;;
21426;SDS011;10874;49.452;11.050;2023-06-19T03:00:55;8.27;;;7.47;;
21426;SDS011;10874;49.452;11.050;2023-06-19T03:03:22;8.17;;;7.43;;
21426;SDS011;10874;49.452;11.050;2023-06-19T03:05:50;8.63;;;7.87;;
21426;SDS011;10874;49.452;11.050;2023-06-19T03:08:16;9.47;;;7.90;;
21426;SDS011;10874;49.452;11.050;2023-06-19T03:10:43;8.73;;;8.03;;
21426;SDS011;10874;49.452;11.050;2023-06-19T03:13:12;7.93;;;7.23;;
21426;SDS011;10874;49.452;11.050;2023-06-19T03:15:38;8.77;;;8.03;;
21426;SDS011;10874;49.452;11.050;2023-06-19T03:18:05;8.47;;;7.77;;
21426;SDS011;10874;49.452;11.050;2023-06-19T03:20:37;8.30;;;7.60;;
21426;SDS011;10874;49.452;11.050;2023-06-19T03:23:04;9.90;;;8.93;;
21426;SDS011;10874;49.452;11.050;2023-06-19T03:25:31;8.73;;;8.00;;
21426;SDS011;10874;49.452;11.050;2023-06-19T03:28:02;10.40;;;8.10;;
21426;SDS011;10874;49.452;11.050;2023-06-19T03:30:29;9.33;;;8.40;;
21426;SDS011;10874;49.452;11.050;2023-06-19T03:32:56;9.10;;;8.23;;
21426;SDS011;10874;49.452;11.050;2023-06-19T03:35:39;9.60;;;8.60;;
21426;SDS011;10874;49.452;11.050;2023-06-19T03:38:10;9.73;;;8.83;;
21426;SDS011;10874;49.452;11.050;2023-06-19T03:40:37;9.43;;;8.47;;
21426;SDS011;10874;49.452;11.050;2023-06-19T03:43:09;10.00;;;9.00;;
21426;SDS011;10874;49.452;11.050;2023-06-19T03:45:37;9.10;;;8.27;;
21426;SDS011;10874;49.452;11.050;2023-06-19T03:48:05;9.93;;;8.93;;
21426;SDS011;10874;49.452;11.050;2023-06-19T03:50:32;9.60;;;8.70;;
21426;SDS011;10874;49.452;11.050;2023-06-19T03:52:59;9.20;;;8.30;;
21426;SDS011;10874;49.452;11.050;2023-06-19T03:55:26;9.37;;;8.47;;
21426;SDS011;10874;49.452;11.050;2023-06-19T03:57:52;8.90;;;8.10;;
21426;SDS011;10874;49.452;11.050;2023-06-19T04:00:21;9.60;;;8.70;;
21426;SDS011;10874;49.452;11.050;2023-06-19T04:02:49;9.13;;;8.23;;
21426;SDS011;10874;49.452;11.050;2023-06-19T04:05:16;9.30;;;8.47;;
21426;SDS011;10874;49.452;11.050;2023-06-19T04:07:43;10.17;;;6.23;;
21426;SDS011;10874;49.452;11.050;2023-06-19T04:10:13;8.67;;;7.83;;
21426;SDS011;10874;49.452;11.050;2023-06-19T04:12:40;8.67;;;7.87;;
21426;SDS011;10874;49.452;11.050;2023-06-19T04:15:08;8.67;;;7.87;;
21426;SDS011;10874;49.452;11.050;2023-06-19T04:17:35;11.53;;;8.37;;
21426;SDS011;10874;49.452;11.050;2023-06-19T04:20:03;9.43;;;8.53;;
21426;SDS011;10874;49.452;11.050;2023-06-19T04:22:38;9.20;;;8.30;;
21426;SDS011;10874;49.452;11.050;2023-06-19T04:25:06;9.10;;;8.00;;
21426;SDS011;10874;49.452;11.050;2023-06-19T04:27:33;9.63;;;8.73;;
21426;SDS011;10874;49.452;11.050;2023-06-19T04:30:00;9.37;;;8.53;;
21426;SDS011;10874;49.452;11.050;2023-06-19T04:32:27;9.57;;;8.57;;
21426;SDS011;10874;49.452;11.050;2023-06-19T04:34:54;9.23;;;8.43;;
21426;SDS011;10874;49.452;11.050;2023-06-19T04:37:21;9.70;;;8.70;;
21426;SDS011;10874;49.452;11.050;2023-06-19T04:39:48;14.50;;;8.87;;
21426;SDS011;10874;49.452;11.050;2023-06-19T04:42:16;10.67;;;9.27;;
21426;SDS011;10874;49.452;11.050;2023-06-19T04:44:46;9.97;;;8.97;;
21426;SDS011;10874;49.452;11.050;2023-06-19T04:47:13;11.07;;;8.60;;
21426;SDS011;10874;49.452;11.050;2023-06-19T04:49:40;9.57;;;8.63;;
21426;SDS011;10874;49.452;11.050;2023-06-19T04:52:07;11.17;;;10.00;;
21426;SDS011;10874;49.452;11.050;2023-06-19T04:54:34;11.17;;;8.57;;
21426;SDS011;10874;49.452;11.050;2023-06-19T04:57:01;9.63;;;8.63;;
21426;SDS011;10874;49.452;11.050;2023-06-19T04:59:28;10.00;;;9.00;;
21426;SDS011;10874;49.452;11.050;2023-06-19T05:01:57;11.03;;;8.90;;
21426;SDS011;10874;49.452;11.050;2023-06-19T05:04:24;9.73;;;8.87;;
21426;SDS011;10874;49.452;11.050;2023-06-19T05:06:50;9.97;;;8.53;;
21426;SDS011;10874;49.452;11.050;2023-06-19T05:09:17;10.67;;;9.13;;
21426;SDS011;10874;49.452;11.050;2023-06-19T05:11:44;10.93;;;9.83;;
21426;SDS011;10874;49.452;11.050;2023-06-19T05:14:11;12.93;;;10.47;;
21426;SDS011;10874;49.452;11.050;2023-06-19T05:16:38;10.97;;;9.93;;
21426;SDS011;10874;49.452;11.050;2023-06-19T05:19:06;11.93;;;10.40;;
21426;SDS011;10874;49.452;11.050;2023-06-19T05:21:33;12.07;;;10.03;;
21426;SDS011;10874;49.452;11.050;2023-06-19T05:23:59;12.30;;;9.60;;
21426;SDS011;10874;49.452;11.050;2023-06-19T05:26:26;12.17;;;10.00;;
21426;SDS011;10874;49.452;11.050;2023-06-19T05:28:53;14.50;;;10.53;;
21426;SDS011;10874;49.452;11.050;2023-06-19T05:31:20;15.17;;;10.93;;
21426;SDS011;10874;49.452;11.050;2023-06-19T05:33:47;12.37;;;9.63;;
21426;SDS011;10874;49.452;11.050;2023-06-19T05:36:13;15.63;;;12.10;;
21426;SDS011;10874;49.452;11.050;2023-06-19T05:38:40;14.93;;;11.00;;
21426;SDS011;10874;49.452;11.050;2023-06-19T05:41:07;13.23;;;10.10;;
21426;SDS011;10874;49.452;11.050;2023-06-19T05:43:33;11.23;;;9.60;;
21426;SDS011;10874;49.452;11.050;2023-06-19T05:46:00;10.80;;;9.73;;
21426;SDS011;10874;49.452;11.050;2023-06-19T05:48:28;12.07;;;10.87;;
21426;SDS011;10874;49.452;11.050;2023-06-19T05:50:55;13.33;;;10.83;;
21426;SDS011;10874;49.452;11.050;2023-06-19T05:53:22;10.83;;;8.53;;
21426;SDS011;10874;49.452;11.050;2023-06-19T05:55:49;9.70;;;8.70;;
21426;SDS011;10874;49.452;11.050;2023-06-19T05:58:16;10.57;;;8.37;;
21426;SDS011;10874;49.452;11.050;2023-06-19T06:00:46;9.93;;;8.67;;
21426;SDS011;10874;49.452;11.050;2023-06-19T06:03:13;9.50;;;8.50;;
21426;SDS011;10874;49.452;11.050;2023-06-19T06:05:41;8.80;;;8.00;;
21426;SDS011;10874;49.452;11.050;2023-06-19T06:08:08;10.20;;;8.60;;
21426;SDS011;10874;49.452;11.050;2023-06-19T06:10:35;9.77;;;8.30;;
21426;SDS011;10874;49.452;11.050;2023-06-19T06:13:02;8.73;;;7.93;;
21426;SDS011;10874;49.452;11.050;2023-06-19T06:15:28;8.93;;;8.13;;
21426;SDS011;10874;49.452;11.050;2023-06-19T06:17:55;7.97;;;7.20;;
21426;SDS011;10874;49.452;11.050;2023-06-19T06:20:22;8.07;;;7.37;;
21426;SDS011;10874;49.452;11.050;2023-06-19T06:22:49;8.10;;;7.40;;
21426;SDS011;10874;49.452;11.050;2023-06-19T06:25:16;9.30;;;8.50;;
21426;SDS011;10874;49.452;11.050;2023-06-19T06:27:43;12.00;;;10.90;;
21426;SDS011;10874;49.452;11.050;2023-06-19T06:30:11;10.57;;;9.57;;
21426;SDS011;10874;49.452;11.050;2023-06-19T06:32:38;10.00;;;7.90;;
21426;SDS011;10874;49.452;11.050;2023-06-19T06:35:05;8.73;;;7.87;;
21426;SDS011;10874;49.452;11.050;2023-06-19T06:37:32;8.23;;;7.27;;
21426;SDS011;10874;49.452;11.050;2023-06-19T06:39:59;8.87;;;7.50;;
21426;SDS011;10874;49.452;11.050;2023-06-19T06:42:25;7.97;;;7.03;;
21426;SDS011;10874;49.452;11.050;2023-06-19T06:44:53;9.07;;;7.70;;
21426;SDS011;10874;49.452;11.050;2023-06-19T06:47:20;21.93;;;16.47;;
21426;SDS011;10874;49.452;11.050;2023-06-19T06:49:46;12.07;;;10.87;;
21426;SDS011;10874;49.452;11.050;2023-06-19T06:52:13;8.33;;;7.63;;
21426;SDS011;10874;49.452;11.050;2023-06-19T06:54:40;8.40;;;7.63;;
21426;SDS011;10874;49.452;11.050;2023-06-19T06:57:07;8.37;;;7.57;;
21426;SDS011;10874;49.452;11.050;2023-06-19T06:59:33;7.50;;;6.90;;
21426;SDS011;10874;49.452;11.050;2023-06-19T07:02:00;7.80;;;7.00;;
21426;SDS011;10874;49.452;11.050;2023-06-19T07:04:27;8.73;;;6.30;;
21426;SDS011;10874;49.452;11.050;2023-06-19T07:06:54;8.03;;;6.60;;
21426;SDS011;10874;49.452;11.050;2023-06-19T07:09:21;7.67;;;6.70;;
21426;SDS011;10874;49.452;11.050;2023-06-19T07:11:48;6.50;;;5.87;;
21426;SDS011;10874;49.452;11.050;2023-06-19T07:14:18;6.90;;;6.30;;
21426;SDS011;10874;49.452;11.050;2023-06-19T07:16:45;6.47;;;5.73;;
21426;SDS011;10874;49.452;11.050;2023-06-19T07:19:12;7.23;;;6.20;;
21426;SDS011;10874;49.452;11.050;2023-06-19T07:21:40;6.90;;;6.17;;
21426;SDS011;10874;49.452;11.050;2023-06-19T07:24:07;5.57;;;5.03;;
21426;SDS011;10874;49.452;11.050;2023-06-19T07:26:34;7.00;;;5.63;;
21426;SDS011;10874;49.452;11.050;2023-06-19T07:29:01;6.70;;;6.10;;
21426;SDS011;10874;49.452;11.050;2023-06-19T07:31:28;6.33;;;5.53;;
21426;SDS011;10874;49.452;11.050;2023-06-19T07:33:54;5.97;;;5.47;;
21426;SDS011;10874;49.452;11.050;2023-06-19T07:36:21;5.63;;;5.13;;
21426;SDS011;10874;49.452;11.050;2023-06-19T07:38:48;6.00;;;5.50;;
21426;SDS011;10874;49.452;11.050;2023-06-19T07:41:14;6.53;;;5.53;;
21426;SDS011;10874;49.452;11.050;2023-06-19T07:43:41;5.90;;;5.40;;
21426;SDS011;10874;49.452;11.050;2023-06-19T07:46:08;5.73;;;5.20;;
21426;SDS011;10874;49.452;11.050;2023-06-19T07:48:35;6.00;;;5.50;;
21426;SDS011;10874;49.452;11.050;2023-06-19T07:51:02;5.53;;;5.03;;
21426;SDS011;10874;49.452;11.050;2023-06-19T07:53:29;5.93;;;5.00;;
21426;SDS011;10874;49.452;11.050;2023-06-19T07:55:56;4.70;;;4.33;;
21426;SDS011;10874;49.452;11.050;2023-06-19T07:58:22;4.87;;;4.47;;
21426;SDS011;10874;49.452;11.050;2023-06-19T08:00:49;4.57;;;4.17;;
21426;SDS011;10874;49.452;11.050;2023-06-19T08:03:16;4.87;;;4.40;;
21426;SDS011;10874;49.452;11.050;2023-06-19T08:05:43;5.33;;;4.80;;
21426;SDS011;10874;49.452;11.050;2023-06-19T08:08:11;5.07;;;4.57;;
21426;SDS011;10874;49.452;11.050;2023-06-19T08:10:38;5.27;;;4.23;;
21426;SDS011;10874;49.452;11.050;2023-06-19T08:13:05;5.07;;;4.30;;
21426;SDS011;10874;49.452;11.050;2023-06-19T08:15:32;4.83;;;4.30;;
21426;SDS011;10874;49.452;11.050;2023-06-19T08:17:58;5.07;;;4.53;;
21426;SDS011;10874;49.452;11.050;2023-06-19T08:20:25;4.87;;;4.37;;
21426;SDS011;10874;49.452;11.050;2023-06-19T08:22:53;6.70;;;3.60;;
21426;SDS011;10874;49.452;11.050;2023-06-19T08:25:19;5.17;;;3.57;;
21426;SDS011;10874;49.452;11.050;2023-06-19T08:27:46;4.37;;;3.97;;
21426;SDS011;10874;49.452;11.050;2023-06-19T08:30:13;4.40;;;4.00;;
21426;SDS011;10874;49.452;11.050;2023-06-19T08:32:40;5.10;;;4.60;;
21426;SDS011;10874;49.452;11.050;2023-06-19T08:35:07;4.53;;;4.20;;
21426;SDS011;10874;49.452;11.050;2023-06-19T08:37:34;4.70;;;4.17;;
21426;SDS011;10874;49.452;11.050;2023-06-19T08:40:01;4.60;;;4.00;;
21426;SDS011;10874;49.452;11.050;2023-06-19T08:42:29;5.93;;;4.20;;
21426;SDS011;10874;49.452;11.050;2023-06-19T08:44:56;3.83;;;3.53;;
21426;SDS011;10874;49.452;11.050;2023-06-19T08:47:23;4.10;;;3.43;;
21426;SDS011;10874;49.452;11.050;2023-06-19T08:49:55;3.80;;;3.50;;
21426;SDS011;10874;49.452;11.050;2023-06-19T08:52:22;3.40;;;3.00;;
21426;SDS011;10874;49.452;11.050;2023-06-19T08:54:49;4.53;;;3.63;;
21426;SDS011;10874;49.452;11.050;2023-06-19T08:57:15;3.93;;;3.63;;
21426;SDS011;10874;49.452;11.050;2023-06-19T08:59:49;5.70;;;3.57;;
21426;SDS011;10874;49.452;11.050;2023-06-19T09:02:16;3.80;;;3.50;;
21426;SDS011;10874;49.452;11.050;2023-06-19T09:04:43;3.80;;;3.30;;
21426;SDS011;10874;49.452;11.050;2023-06-19T09:07:11;4.03;;;3.60;;
21426;SDS011;10874;49.452;11.050;2023-06-19T09:09:44;3.60;;;3.30;;
21426;SDS011;10874;49.452;11.050;2023-06-19T09:12:12;4.10;;;3.80;;
21426;SDS011;10874;49.452;11.050;2023-06-19T09:14:42;4.77;;;3.90;;
21426;SDS011;10874;49.452;11.050;2023-06-19T09:17:19;4.57;;;4.13;;
21426;SDS011;10874;49.452;11.050;2023-06-19T09:19:48;3.53;;;3.23;;
21426;SDS011;10874;49.452;11.050;2023-06-19T09:22:16;3.70;;;3.40;;
21426;SDS011;10874;49.452;11.050;2023-06-19T09:24:45;4.33;;;3.93;;
21426;SDS011;10874;49.452;11.050;2023-06-19T09:27:13;3.80;;;3.50;;
21426;SDS011;10874;49.452;11.050;2023-06-19T09:29:41;4.10;;;3.67;;
21426;SDS011;10874;49.452;11.050;2023-06-19T09:32:41;4.30;;;3.90;;
21426;SDS011;10874;49.452;11.050;2023-06-19T09:35:00;4.20;;;3.90;;
21426;SDS011;10874;49.452;11.050;2023-06-19T09:37:28;4.10;;;3.77;;
21426;SDS011;10874;49.452;11.050;2023-06-19T09:39:59;3.67;;;3.20;;
21426;SDS011;10874;49.452;11.050;2023-06-19T09:42:33;3.53;;;3.27;;
21426;SDS011;10874;49.452;11.050;2023-06-19T09:45:00;3.97;;;3.67;;
21426;SDS011;10874;49.452;11.050;2023-06-19T09:47:38;4.10;;;3.80;;
21426;SDS011;10874;49.452;11.050;2023-06-19T09:50:05;4.03;;;3.63;;
21426;SDS011;10874;49.452;11.050;2023-06-19T09:52:33;4.10;;;3.80;;
21426;SDS011;10874;49.452;11.050;2023-06-19T09:55:05;4.20;;;3.90;;
21426;SDS011;10874;49.452;11.050;2023-06-19T09:57:32;5.07;;;3.80;;
21426;SDS011;10874;49.452;11.050;2023-06-19T10:00:00;4.53;;;4.13;;
21426;SDS011;10874;49.452;11.050;2023-06-19T10:02:42;7.27;;;4.40;;
21426;SDS011;10874;49.452;11.050;2023-06-19T10:05:10;4.67;;;4.30;;
21426;SDS011;10874;49.452;11.050;2023-06-19T10:07:41;5.43;;;4.17;;
21426;SDS011;10874;49.452;11.050;2023-06-19T10:10:27;4.10;;;3.77;;
21426;SDS011;10874;49.452;11.050;2023-06-19T10:12:59;4.23;;;3.93;;
21426;SDS011;10874;49.452;11.050;2023-06-19T10:15:26;4.60;;;4.20;;
21426;SDS011;10874;49.452;11.050;2023-06-19T10:17:58;4.00;;;3.70;;
21426;SDS011;10874;49.452;11.050;2023-06-19T10:20:32;4.30;;;3.90;;
21426;SDS011;10874;49.452;11.050;2023-06-19T10:23:12;4.10;;;3.80;;
21426;SDS011;10874;49.452;11.050;2023-06-19T10:25:45;4.35;;;4.05;;
21426;SDS011;10874;49.452;11.050;2023-06-19T10:30:45;4.38;;;4.00;;
21426;SDS011;10874;49.452;11.050;2023-06-19T10:33:12;4.47;;;4.15;;
21426;SDS011;10874;49.452;11.050;2023-06-19T10:35:39;4.75;;;4.25;;
21426;SDS011;10874;49.452;11.050;2023-06-19T10:38:09;4.72;;;4.32;;
21426;SDS011;10874;49.452;11.050;2023-06-19T10:40:37;4.88;;;4.38;;
21426;SDS011;10874;49.452;11.050;2023-06-19T10:43:04;4.10;;;3.70;;
21426;SDS011;10874;49.452;11.050;2023-06-19T10:45:31;3.97;;;3.67;;
21426;SDS011;10874;49.452;11.050;2023-06-19T10:47:58;4.47;;;4.17;;
21426;SDS011;10874;49.452;11.050;2023-06-19T10:50:26;4.13;;;3.63;;
21426;SDS011;10874;49.452;11.050;2023-06-19T10:52:53;4.18;;;3.85;;
21426;SDS011;10874;49.452;11.050;2023-06-19T10:55:26;3.97;;;3.67;;
21426;SDS011;10874;49.452;11.050;2023-06-19T10:57:53;4.13;;;3.83;;
21426;SDS011;10874;49.452;11.050;2023-06-19T11:00:23;4.68;;;4.38;;
21426;SDS011;10874;49.452;11.050;2023-06-19T11:02:50;6.75;;;4.63;;
21426;SDS011;10874;49.452;11.050;2023-06-19T11:05:21;5.95;;;4.97;;
21426;SDS011;10874;49.452;11.050;2023-06-19T11:07:54;6.63;;;4.72;;
21426;SDS011;10874;49.452;11.050;2023-06-19T11:10:22;5.70;;;5.20;;
21426;SDS011;10874;49.452;11.050;2023-06-19T11:12:50;7.17;;;5.87;;
21426;SDS011;10874;49.452;11.050;2023-06-19T11:15:17;7.57;;;5.50;;
21426;SDS011;10874;49.452;11.050;2023-06-19T11:17:43;5.70;;;5.10;;
21426;SDS011;10874;49.452;11.050;2023-06-19T11:20:13;5.97;;;5.37;;
21426;SDS011;10874;49.452;11.050;2023-06-19T11:22:41;5.93;;;5.43;;
21426;SDS011;10874;49.452;11.050;2023-06-19T11:25:08;5.50;;;5.00;;
21426;SDS011;10874;49.452;11.050;2023-06-19T11:27:36;4.90;;;4.40;;
21426;SDS011;10874;49.452;11.050;2023-06-19T11:30:04;5.30;;;4.90;;
21426;SDS011;10874;49.452;11.050;2023-06-19T11:32:34;4.50;;;4.20;;
21426;SDS011;10874;49.452;11.050;2023-06-19T11:35:07;4.82;;;4.03;;
21426;SDS011;10874;49.452;11.050;2023-06-19T11:37:35;4.53;;;4.22;;
21426;SDS011;10874;49.452;11.050;2023-06-19T11:40:02;4.78;;;4.38;;
21426;SDS011;10874;49.452;11.050;2023-06-19T11:42:58;4.35;;;4.00;;
21426;SDS011;10874;49.452;11.050;2023-06-19T11:45:25;4.30;;;3.90;;
21426;SDS011;10874;49.452;11.050;2023-06-19T11:47:52;8.33;;;4.00;;
21426;SDS011;10874;49.452;11.050;2023-06-19T11:50:19;4.38;;;3.85;;
21426;SDS011;10874;49.452;11.050;2023-06-19T11:52:51;4.53;;;4.05;;
21426;SDS011;10874;49.452;11.050;2023-06-19T11:55:17;6.60;;;4.82;;
21426;SDS011;10874;49.452;11.050;2023-06-19T11:57:44;4.95;;;4.25;;
21426;SDS011;10874;49.452;11.050;2023-06-19T12:00:14;4.15;;;3.78;;
21426;SDS011;10874;49.452;11.050;2023-06-19T12:02:43;4.90;;;4.38;;
21426;SDS011;10874;49.452;11.050;2023-06-19T12:05:10;5.05;;;4.65;;
21426;SDS011;10874;49.452;11.050;2023-06-19T12:07:37;5.30;;;4.80;;
21426;SDS011;10874;49.452;11.050;2023-06-19T12:10:04;5.43;;;4.93;;
21426;SDS011;10874;49.452;11.050;2023-06-19T12:12:36;5.00;;;4.60;;
21426;SDS011;10874;49.452;11.050;2023-06-19T12:15:04;5.97;;;5.33;;
21426;SDS011;10874;49.452;11.050;2023-06-19T12:17:33;5.00;;;4.50;;
21426;SDS011;10874;49.452;11.050;2023-06-19T12:20:01;6.38;;;4.88;;
21426;SDS011;10874;49.452;11.050;2023-06-19T12:22:28;5.95;;;5.32;;
21426;SDS011;10874;49.452;11.050;2023-06-19T12:24:55;5.03;;;4.60;;
21426;SDS011;10874;49.452;11.050;2023-06-19T12:27:21;4.33;;;4.03;;
21426;SDS011;10874;49.452;11.050;2023-06-19T12:29:48;4.30;;;3.90;;
21426;SDS011;10874;49.452;11.050;2023-06-19T12:32:15;5.13;;;4.73;;
21426;SDS011;10874;49.452;11.050;2023-06-19T12:34:42;5.30;;;4.83;;
21426;SDS011;10874;49.452;11.050;2023-06-19T12:37:16;5.33;;;4.83;;
21426;SDS011;10874;49.452;11.050;2023-06-19T12:39:45;7.13;;;5.57;;
21426;SDS011;10874;49.452;11.050;2023-06-19T12:42:12;5.40;;;4.90;;
21426;SDS011;10874;49.452;11.050;2023-06-19T12:44:39;5.80;;;5.30;;
21426;SDS011;10874;49.452;11.050;2023-06-19T12:47:06;6.00;;;5.13;;
21426;SDS011;10874;49.452;11.050;2023-06-19T12:49:33;6.10;;;5.33;;
21426;SDS011;10874;49.452;11.050;2023-06-19T12:52:00;5.90;;;5.40;;
21426;SDS011;10874;49.452;11.050;2023-06-19T12:54:27;6.13;;;5.53;;
21426;SDS011;10874;49.452;11.050;2023-06-19T12:56:54;6.23;;;5.63;;
21426;SDS011;10874;49.452;11.050;2023-06-19T12:59:22;6.00;;;5.50;;
21426;SDS011;10874;49.452;11.050;2023-06-19T13:01:48;6.73;;;5.60;;
21426;SDS011;10874;49.452;11.050;2023-06-19T13:04:15;6.87;;;5.77;;
21426;SDS011;10874;49.452;11.050;2023-06-19T13:06:42;5.97;;;4.93;;
21426;SDS011;10874;49.452;11.050;2023-06-19T13:09:09;5.27;;;4.77;;
21426;SDS011;10874;49.452;11.050;2023-06-19T13:11:36;4.87;;;4.47;;
21426;SDS011;10874;49.452;11.050;2023-06-19T13:14:04;5.20;;;4.70;;
21426;SDS011;10874;49.452;11.050;2023-06-19T13:16:31;6.10;;;5.53;;
21426;SDS011;10874;49.452;11.050;2023-06-19T13:19:11;5.47;;;5.03;;
21426;SDS011;10874;49.452;11.050;2023-06-19T13:21:38;8.48;;;5.50;;
21426;SDS011;10874;49.452;11.050;2023-06-19T13:24:04;5.90;;;5.10;;
21426;SDS011;10874;49.452;11.050;2023-06-19T13:26:31;6.03;;;5.50;;
21426;SDS011;10874;49.452;11.050;2023-06-19T13:28:58;6.33;;;5.53;;
21426;SDS011;10874;49.452;11.050;2023-06-19T13:31:27;6.97;;;6.00;;
21426;SDS011;10874;49.452;11.050;2023-06-19T13:33:54;5.63;;;5.13;;
21426;SDS011;10874;49.452;11.050;2023-06-19T13:36:20;5.57;;;5.07;;
21426;SDS011;10874;49.452;11.050;2023-06-19T13:38:47;6.32;;;5.40;;
21426;SDS011;10874;49.452;11.050;2023-06-19T13:41:15;6.13;;;4.83;;
21426;SDS011;10874;49.452;11.050;2023-06-19T13:43:41;5.37;;;4.97;;
21426;SDS011;10874;49.452;11.050;2023-06-19T13:46:08;5.77;;;4.83;;
21426;SDS011;10874;49.452;11.050;2023-06-19T13:48:35;5.20;;;4.80;;
21426;SDS011;10874;49.452;11.050;2023-06-19T13:51:02;6.03;;;5.43;;
21426;SDS011;10874;49.452;11.050;2023-06-19T13:53:28;5.90;;;4.77;;
21426;SDS011;10874;49.452;11.050;2023-06-19T13:55:56;5.70;;;5.20;;
21426;SDS011;10874;49.452;11.050;2023-06-19T13:58:23;5.80;;;5.30;;
21426;SDS011;10874;49.452;11.050;2023-06-19T14:00:50;5.50;;;5.00;;
21426;SDS011;10874;49.452;11.050;2023-06-19T14:03:17;5.23;;;4.83;;
21426;SDS011;10874;49.452;11.050;2023-06-19T14:05:44;5.93;;;5.20;;
21426;SDS011;10874;49.452;11.050;2023-06-19T14:08:11;5.30;;;4.80;;
21426;SDS011;10874;49.452;11.050;2023-06-19T14:10:37;5.13;;;4.60;;
21426;SDS011;10874;49.452;11.050;2023-06-19T14:13:04;5.13;;;4.67;;
21426;SDS011;10874;49.452;11.050;2023-06-19T14:15:32;5.00;;;4.70;;
21426;SDS011;10874;49.452;11.050;2023-06-19T14:17:59;7.10;;;4.60;;
21426;SDS011;10874;49.452;11.050;2023-06-19T14:20:26;6.17;;;4.60;;
21426;SDS011;10874;49.452;11.050;2023-06-19T14:22:53;5.13;;;4.63;;
21426;SDS011;10874;49.452;11.050;2023-06-19T14:25:19;5.03;;;4.63;;
21426;SDS011;10874;49.452;11.050;2023-06-19T14:27:46;4.90;;;4.50;;
21426;SDS011;10874;49.452;11.050;2023-06-19T14:30:13;4.93;;;4.47;;
21426;SDS011;10874;49.452;11.050;2023-06-19T14:32:40;4.77;;;4.40;;
21426;SDS011;10874;49.452;11.050;2023-06-19T14:35:07;6.10;;;4.70;;
21426;SDS011;10874;49.452;11.050;2023-06-19T14:37:33;6.30;;;4.73;;
21426;SDS011;10874;49.452;11.050;2023-06-19T14:40:00;6.43;;;5.07;;